createdAt,value
2018-04-16T10:09:09.579Z,19.20
2018-04-16T10:11:44.432Z,19.00
2018-04-16T11:24:02.772Z,15.30
2018-04-16T11:26:32.506Z,14.90
2018-04-16T11:29:11.985Z,14.80
2018-04-16T11:31:48.048Z,14.30
2018-04-16T11:34:18.766Z,14.00
2018-04-16T11:36:55.088Z,13.70
2018-04-16T11:39:29.549Z,13.50
2018-04-16T11:41:59.992Z,12.90
2018-04-16T11:44:34.437Z,13.00
2018-04-16T11:47:08.072Z,12.90
2018-04-16T11:49:36.654Z,12.90
2018-04-16T11:52:07.896Z,12.90
2018-04-16T11:54:51.317Z,13.00
2018-04-16T11:57:28.380Z,13.00
2018-04-16T11:59:59.683Z,13.20
2018-04-16T12:02:35.624Z,13.20
2018-04-16T12:52:18.466Z,17.20
2018-04-16T12:54:52.004Z,18.10
2018-04-16T12:57:39.432Z,18.10
2018-04-16T13:03:36.482Z,19.50
2018-04-16T13:06:14.576Z,17.70
2018-04-16T13:31:15.004Z,17.10
2018-04-16T13:33:52.796Z,17.10
2018-04-16T13:36:56.719Z,16.50
2018-04-16T13:39:34.505Z,17.70
2018-04-16T13:42:10.315Z,17.70
2018-04-16T13:44:45.265Z,18.10
2018-04-16T13:47:21.788Z,17.30
2018-04-16T13:53:14.633Z,17.00
2018-04-16T14:05:05.298Z,15.70
2018-04-16T14:07:39.345Z,15.30
2018-04-16T14:13:30.726Z,15.20
2018-04-16T14:16:06.666Z,15.10
2018-04-16T14:18:37.192Z,15.00
2018-04-16T14:21:06.218Z,14.90
2018-04-16T14:23:43.336Z,15.20
2018-04-16T14:26:13.185Z,15.40
2018-04-16T14:28:45.116Z,15.40
2018-04-16T14:31:15.063Z,15.20
2018-04-16T14:36:51.295Z,13.90
2018-04-16T14:42:04.271Z,13.60
2018-04-16T14:44:38.853Z,13.60
2018-04-16T14:47:13.170Z,13.50
2018-04-16T14:49:44.376Z,13.40
2018-04-16T14:52:14.112Z,13.10
2018-04-16T14:54:47.373Z,12.90
2018-04-16T14:57:20.964Z,12.70
2018-04-16T14:59:50.521Z,12.50
2018-04-16T15:02:24.501Z,12.50
2018-04-16T15:04:59.879Z,12.70
2018-04-16T15:07:34.280Z,12.70
2018-04-16T15:10:10.627Z,12.80
2018-04-16T15:12:40.829Z,12.90
2018-04-16T15:15:11.731Z,13.20
2018-04-16T15:17:43.181Z,13.50
2018-04-16T15:20:12.449Z,13.60
2018-04-16T15:22:55.675Z,13.90
2018-04-16T15:25:28.992Z,14.10
2018-04-16T15:28:04.773Z,14.10
2018-04-16T15:30:41.189Z,14.20
2018-04-16T15:33:15.079Z,14.20
2018-04-16T15:35:51.233Z,13.70
2018-04-16T15:38:26.133Z,13.70
2018-04-16T15:41:01.891Z,13.30
2018-04-16T15:55:57.220Z,13.10
2018-04-16T15:58:32.678Z,13.10
2018-04-16T16:01:06.212Z,13.00
2018-04-16T16:03:42.503Z,12.60
2018-04-16T16:06:13.011Z,12.60
2018-04-16T16:08:44.014Z,12.50
